sensor_id;sensor_type;location;lat;lon;timestamp;P1;durP1;ratioP1;P2;durP2;ratioP2
63621;SDS011;49770;47.544;19.074;2023-06-22T04:10:56;25.97;;;11.37;;
63621;SDS011;49770;47.544;19.074;2023-06-22T04:13:59;17.45;;;9.95;;
63621;SDS011;49770;47.544;19.074;2023-06-22T04:17:02;17.70;;;9.80;;
63621;SDS011;49770;47.544;19.074;2023-06-22T04:20:05;16.25;;;9.38;;
63621;SDS011;49770;47.544;19.074;2023-06-22T04:23:09;22.77;;;8.98;;
63621;SDS011;49770;47.544;19.074;2023-06-22T04:26:12;17.55;;;9.32;;
63621;SDS011;49770;47.544;19.074;2023-06-22T04:29:16;14.55;;;8.13;;
63621;SDS011;49770;47.544;19.074;2023-06-22T04:32:19;14.73;;;7.53;;
63621;SDS011;49770;47.544;19.074;2023-06-22T04:35:22;12.65;;;7.05;;
63621;SDS011;49770;47.544;19.074;2023-06-22T04:38:25;9.48;;;6.78;;
63621;SDS011;49770;47.544;19.074;2023-06-22T04:41:27;14.77;;;7.07;;
63621;SDS011;49770;47.544;19.074;2023-06-22T04:44:30;12.88;;;7.28;;
63621;SDS011;49770;47.544;19.074;2023-06-22T04:47:33;13.23;;;6.90;;
63621;SDS011;49770;47.544;19.074;2023-06-22T04:50:36;13.80;;;6.75;;
63621;SDS011;49770;47.544;19.074;2023-06-22T04:53:41;9.27;;;6.10;;
63621;SDS011;49770;47.544;19.074;2023-06-22T04:56:45;13.38;;;6.90;;
63621;SDS011;49770;47.544;19.074;2023-06-22T04:59:48;15.63;;;6.57;;
63621;SDS011;49770;47.544;19.074;2023-06-22T05:02:51;11.68;;;7.07;;
63621;SDS011;49770;47.544;19.074;2023-06-22T05:06:05;11.68;;;6.22;;
63621;SDS011;49770;47.544;19.074;2023-06-22T05:09:07;15.52;;;7.20;;
63621;SDS011;49770;47.544;19.074;2023-06-22T05:12:10;14.23;;;7.10;;
63621;SDS011;49770;47.544;19.074;2023-06-22T05:15:14;11.70;;;6.40;;
63621;SDS011;49770;47.544;19.074;2023-06-22T05:18:17;13.65;;;6.20;;
63621;SDS011;49770;47.544;19.074;2023-06-22T05:21:24;12.93;;;5.93;;
63621;SDS011;49770;47.544;19.074;2023-06-22T05:24:28;11.30;;;5.20;;
63621;SDS011;49770;47.544;19.074;2023-06-22T05:27:31;8.77;;;5.18;;
63621;SDS011;49770;47.544;19.074;2023-06-22T05:30:34;10.30;;;5.30;;
63621;SDS011;49770;47.544;19.074;2023-06-22T05:33:37;8.77;;;5.32;;
63621;SDS011;49770;47.544;19.074;2023-06-22T05:36:39;11.05;;;5.60;;
63621;SDS011;49770;47.544;19.074;2023-06-22T05:39:42;10.40;;;5.47;;
63621;SDS011;49770;47.544;19.074;2023-06-22T05:42:44;10.32;;;5.10;;
63621;SDS011;49770;47.544;19.074;2023-06-22T05:45:47;9.52;;;5.18;;
63621;SDS011;49770;47.544;19.074;2023-06-22T05:48:50;9.90;;;5.25;;
63621;SDS011;49770;47.544;19.074;2023-06-22T05:51:53;10.63;;;5.10;;
63621;SDS011;49770;47.544;19.074;2023-06-22T05:54:55;9.18;;;5.30;;
63621;SDS011;49770;47.544;19.074;2023-06-22T05:58:00;11.12;;;5.65;;
63621;SDS011;49770;47.544;19.074;2023-06-22T06:01:02;8.10;;;5.05;;
63621;SDS011;49770;47.544;19.074;2023-06-22T06:04:06;10.93;;;5.15;;
63621;SDS011;49770;47.544;19.074;2023-06-22T06:07:11;12.18;;;5.43;;
63621;SDS011;49770;47.544;19.074;2023-06-22T06:10:14;11.20;;;5.30;;
63621;SDS011;49770;47.544;19.074;2023-06-22T06:13:17;10.63;;;5.32;;
63621;SDS011;49770;47.544;19.074;2023-06-22T06:16:19;9.70;;;5.65;;
63621;SDS011;49770;47.544;19.074;2023-06-22T06:19:22;7.82;;;5.20;;
63621;SDS011;49770;47.544;19.074;2023-06-22T06:22:25;10.35;;;5.30;;
63621;SDS011;49770;47.544;19.074;2023-06-22T06:25:27;15.23;;;5.95;;
63621;SDS011;49770;47.544;19.074;2023-06-22T06:28:30;13.75;;;5.45;;
63621;SDS011;49770;47.544;19.074;2023-06-22T06:31:33;10.40;;;5.43;;
63621;SDS011;49770;47.544;19.074;2023-06-22T06:34:36;12.75;;;5.43;;
63621;SDS011;49770;47.544;19.074;2023-06-22T06:37:42;11.18;;;5.43;;
63621;SDS011;49770;47.544;19.074;2023-06-22T06:40:50;11.15;;;5.50;;
63621;SDS011;49770;47.544;19.074;2023-06-22T06:43:53;9.98;;;5.32;;
63621;SDS011;49770;47.544;19.074;2023-06-22T06:46:56;10.18;;;5.18;;
63621;SDS011;49770;47.544;19.074;2023-06-22T06:49:58;7.62;;;4.65;;
63621;SDS011;49770;47.544;19.074;2023-06-22T06:53:02;11.27;;;5.20;;
63621;SDS011;49770;47.544;19.074;2023-06-22T06:56:04;12.45;;;5.65;;
63621;SDS011;49770;47.544;19.074;2023-06-22T06:59:07;13.07;;;5.60;;
63621;SDS011;49770;47.544;19.074;2023-06-22T07:02:10;11.77;;;5.60;;
63621;SDS011;49770;47.544;19.074;2023-06-22T07:05:13;11.23;;;4.70;;
63621;SDS011;49770;47.544;19.074;2023-06-22T07:08:16;8.48;;;4.20;;
63621;SDS011;49770;47.544;19.074;2023-06-22T07:11:18;10.38;;;4.70;;
63621;SDS011;49770;47.544;19.074;2023-06-22T07:14:21;13.00;;;4.60;;
63621;SDS011;49770;47.544;19.074;2023-06-22T07:17:24;12.60;;;6.40;;
63621;SDS011;49770;47.544;19.074;2023-06-22T07:20:26;13.27;;;5.22;;
63621;SDS011;49770;47.544;19.074;2023-06-22T07:23:30;13.32;;;4.85;;
63621;SDS011;49770;47.544;19.074;2023-06-22T07:26:33;10.00;;;4.60;;
63621;SDS011;49770;47.544;19.074;2023-06-22T07:29:36;9.80;;;4.40;;
63621;SDS011;49770;47.544;19.074;2023-06-22T07:32:40;10.60;;;4.43;;
63621;SDS011;49770;47.544;19.074;2023-06-22T07:35:43;11.80;;;4.65;;
63621;SDS011;49770;47.544;19.074;2023-06-22T07:38:46;13.05;;;4.75;;
63621;SDS011;49770;47.544;19.074;2023-06-22T07:41:49;8.23;;;4.03;;
63621;SDS011;49770;47.544;19.074;2023-06-22T07:44:52;13.07;;;4.72;;
63621;SDS011;49770;47.544;19.074;2023-06-22T07:47:55;9.55;;;4.18;;
63621;SDS011;49770;47.544;19.074;2023-06-22T07:50:57;8.20;;;4.10;;
63621;SDS011;49770;47.544;19.074;2023-06-22T07:54:00;8.88;;;4.43;;
63621;SDS011;49770;47.544;19.074;2023-06-22T07:57:04;8.98;;;4.10;;
63621;SDS011;49770;47.544;19.074;2023-06-22T08:00:07;9.40;;;4.05;;
63621;SDS011;49770;47.544;19.074;2023-06-22T08:03:17;9.30;;;4.60;;
63621;SDS011;49770;47.544;19.074;2023-06-22T08:06:20;10.70;;;4.20;;
63621;SDS011;49770;47.544;19.074;2023-06-22T08:09:23;11.52;;;4.45;;
63621;SDS011;49770;47.544;19.074;2023-06-22T08:12:27;12.35;;;3.92;;
63621;SDS011;49770;47.544;19.074;2023-06-22T08:15:30;10.70;;;4.10;;
63621;SDS011;49770;47.544;19.074;2023-06-22T08:18:33;11.65;;;4.40;;
63621;SDS011;49770;47.544;19.074;2023-06-22T08:21:36;8.75;;;4.20;;
63621;SDS011;49770;47.544;19.074;2023-06-22T08:24:38;8.25;;;4.18;;
63621;SDS011;49770;47.544;19.074;2023-06-22T08:27:44;10.73;;;4.50;;
63621;SDS011;49770;47.544;19.074;2023-06-22T08:30:49;10.23;;;4.32;;
63621;SDS011;49770;47.544;19.074;2023-06-22T08:33:52;11.60;;;4.40;;
63621;SDS011;49770;47.544;19.074;2023-06-22T08:36:54;9.90;;;4.47;;
63621;SDS011;49770;47.544;19.074;2023-06-22T08:39:58;12.07;;;5.18;;
63621;SDS011;49770;47.544;19.074;2023-06-22T08:43:01;9.88;;;5.15;;
63621;SDS011;49770;47.544;19.074;2023-06-22T08:46:04;11.05;;;4.50;;
63621;SDS011;49770;47.544;19.074;2023-06-22T08:49:07;10.68;;;5.20;;
63621;SDS011;49770;47.544;19.074;2023-06-22T08:52:10;10.75;;;5.87;;
63621;SDS011;49770;47.544;19.074;2023-06-22T08:55:13;9.90;;;5.30;;
63621;SDS011;49770;47.544;19.074;2023-06-22T08:58:17;12.10;;;5.55;;
63621;SDS011;49770;47.544;19.074;2023-06-22T09:01:21;10.02;;;6.00;;
63621;SDS011;49770;47.544;19.074;2023-06-22T09:04:24;11.57;;;5.97;;
63621;SDS011;49770;47.544;19.074;2023-06-22T09:07:27;9.48;;;5.62;;
63621;SDS011;49770;47.544;19.074;2023-06-22T09:10:30;12.27;;;6.62;;
63621;SDS011;49770;47.544;19.074;2023-06-22T09:13:33;10.40;;;6.50;;
63621;SDS011;49770;47.544;19.074;2023-06-22T09:16:37;14.00;;;7.18;;
63621;SDS011;49770;47.544;19.074;2023-06-22T09:19:40;8.52;;;6.68;;
63621;SDS011;49770;47.544;19.074;2023-06-22T09:22:43;10.65;;;7.05;;
63621;SDS011;49770;47.544;19.074;2023-06-22T09:25:46;8.13;;;7.10;;
63621;SDS011;49770;47.544;19.074;2023-06-22T09:28:50;8.57;;;7.53;;
63621;SDS011;49770;47.544;19.074;2023-06-22T09:31:53;12.18;;;7.55;;
63621;SDS011;49770;47.544;19.074;2023-06-22T09:34:58;14.05;;;7.85;;
63621;SDS011;49770;47.544;19.074;2023-06-22T09:38:01;13.32;;;8.50;;
63621;SDS011;49770;47.544;19.074;2023-06-22T09:41:04;8.63;;;7.75;;
63621;SDS011;49770;47.544;19.074;2023-06-22T09:44:07;12.37;;;8.00;;
63621;SDS011;49770;47.544;19.074;2023-06-22T09:47:10;13.55;;;8.82;;
63621;SDS011;49770;47.544;19.074;2023-06-22T09:50:12;12.48;;;7.90;;
63621;SDS011;49770;47.544;19.074;2023-06-22T09:53:15;13.18;;;8.85;;
63621;SDS011;49770;47.544;19.074;2023-06-22T09:56:18;9.20;;;8.23;;
63621;SDS011;49770;47.544;19.074;2023-06-22T09:59:20;10.63;;;8.43;;
63621;SDS011;49770;47.544;19.074;2023-06-22T10:02:23;12.98;;;8.57;;
63621;SDS011;49770;47.544;19.074;2023-06-22T10:05:26;14.77;;;8.68;;
63621;SDS011;49770;47.544;19.074;2023-06-22T10:08:29;12.35;;;8.75;;
63621;SDS011;49770;47.544;19.074;2023-06-22T10:11:32;16.10;;;9.88;;
63621;SDS011;49770;47.544;19.074;2023-06-22T10:14:37;10.85;;;8.40;;
63621;SDS011;49770;47.544;19.074;2023-06-22T10:17:40;9.95;;;8.95;;
63621;SDS011;49770;47.544;19.074;2023-06-22T10:20:43;11.00;;;8.90;;
63621;SDS011;49770;47.544;19.074;2023-06-22T10:23:46;9.45;;;8.25;;
63621;SDS011;49770;47.544;19.074;2023-06-22T10:26:49;11.77;;;8.30;;
63621;SDS011;49770;47.544;19.074;2023-06-22T10:29:52;10.95;;;8.45;;
63621;SDS011;49770;47.544;19.074;2023-06-22T10:32:56;13.82;;;8.80;;
63621;SDS011;49770;47.544;19.074;2023-06-22T10:35:59;11.65;;;8.13;;
63621;SDS011;49770;47.544;19.074;2023-06-22T10:39:01;11.82;;;8.68;;
63621;SDS011;49770;47.544;19.074;2023-06-22T10:42:05;9.80;;;8.73;;
63621;SDS011;49770;47.544;19.074;2023-06-22T10:45:08;10.05;;;8.88;;
63621;SDS011;49770;47.544;19.074;2023-06-22T10:48:11;10.63;;;8.68;;
63621;SDS011;49770;47.544;19.074;2023-06-22T10:51:14;12.88;;;8.77;;
63621;SDS011;49770;47.544;19.074;2023-06-22T10:54:19;12.15;;;7.85;;
63621;SDS011;49770;47.544;19.074;2023-06-22T10:57:22;11.43;;;8.27;;
63621;SDS011;49770;47.544;19.074;2023-06-22T11:00:25;12.70;;;8.70;;
63621;SDS011;49770;47.544;19.074;2023-06-22T11:03:27;14.30;;;9.38;;
63621;SDS011;49770;47.544;19.074;2023-06-22T11:06:30;13.85;;;8.90;;
63621;SDS011;49770;47.544;19.074;2023-06-22T11:09:33;9.68;;;8.60;;
63621;SDS011;49770;47.544;19.074;2023-06-22T11:12:36;13.88;;;9.32;;
63621;SDS011;49770;47.544;19.074;2023-06-22T11:15:39;11.35;;;8.90;;
63621;SDS011;49770;47.544;19.074;2023-06-22T11:18:42;12.90;;;10.27;;
63621;SDS011;49770;47.544;19.074;2023-06-22T11:21:44;11.43;;;9.65;;
63621;SDS011;49770;47.544;19.074;2023-06-22T11:24:47;12.07;;;8.98;;
63621;SDS011;49770;47.544;19.074;2023-06-22T11:27:50;11.73;;;9.10;;
63621;SDS011;49770;47.544;19.074;2023-06-22T11:30:55;11.20;;;8.07;;
63621;SDS011;49770;47.544;19.074;2023-06-22T11:34:01;13.82;;;8.88;;
63621;SDS011;49770;47.544;19.074;2023-06-22T11:37:04;13.57;;;8.43;;
63621;SDS011;49770;47.544;19.074;2023-06-22T11:40:07;14.70;;;9.02;;
63621;SDS011;49770;47.544;19.074;2023-06-22T11:43:11;10.07;;;8.95;;
63621;SDS011;49770;47.544;19.074;2023-06-22T11:46:14;13.98;;;9.77;;
63621;SDS011;49770;47.544;19.074;2023-06-22T11:49:17;11.55;;;9.52;;
63621;SDS011;49770;47.544;19.074;2023-06-22T11:52:19;14.25;;;9.63;;
63621;SDS011;49770;47.544;19.074;2023-06-22T11:55:23;12.85;;;9.35;;
63621;SDS011;49770;47.544;19.074;2023-06-22T11:58:25;14.50;;;9.25;;
63621;SDS011;49770;47.544;19.074;2023-06-22T12:01:28;12.05;;;9.00;;
63621;SDS011;49770;47.544;19.074;2023-06-22T12:04:31;15.55;;;9.00;;
63621;SDS011;49770;47.544;19.074;2023-06-22T12:07:33;16.42;;;9.52;;
63621;SDS011;49770;47.544;19.074;2023-06-22T12:10:36;13.88;;;9.65;;
63621;SDS011;49770;47.544;19.074;2023-06-22T12:13:39;20.20;;;10.15;;
63621;SDS011;49770;47.544;19.074;2023-06-22T12:16:42;13.62;;;9.90;;
63621;SDS011;49770;47.544;19.074;2023-06-22T12:19:46;19.42;;;9.98;;
63621;SDS011;49770;47.544;19.074;2023-06-22T12:22:49;15.38;;;9.90;;
63621;SDS011;49770;47.544;19.074;2023-06-22T12:25:53;13.30;;;9.98;;
63621;SDS011;49770;47.544;19.074;2023-06-22T12:28:56;12.05;;;9.13;;
63621;SDS011;49770;47.544;19.074;2023-06-22T12:31:59;11.50;;;9.60;;
63621;SDS011;49770;47.544;19.074;2023-06-22T12:35:02;14.80;;;9.85;;
63621;SDS011;49770;47.544;19.074;2023-06-22T12:38:04;13.85;;;9.27;;
63621;SDS011;49770;47.544;19.074;2023-06-22T12:41:09;13.32;;;9.13;;
63621;SDS011;49770;47.544;19.074;2023-06-22T12:44:12;13.50;;;9.60;;
63621;SDS011;49770;47.544;19.074;2023-06-22T12:47:15;12.60;;;9.77;;
63621;SDS011;49770;47.544;19.074;2023-06-22T12:50:17;17.67;;;10.35;;
63621;SDS011;49770;47.544;19.074;2023-06-22T12:53:21;14.65;;;9.73;;
63621;SDS011;49770;47.544;19.074;2023-06-22T12:56:26;19.45;;;10.02;;
63621;SDS011;49770;47.544;19.074;2023-06-22T12:59:28;14.43;;;9.77;;
63621;SDS011;49770;47.544;19.074;2023-06-22T13:02:31;19.37;;;9.65;;
63621;SDS011;49770;47.544;19.074;2023-06-22T13:05:34;17.02;;;10.70;;
63621;SDS011;49770;47.544;19.074;2023-06-22T13:08:38;15.32;;;10.52;;
63621;SDS011;49770;47.544;19.074;2023-06-22T13:11:44;12.40;;;10.35;;
63621;SDS011;49770;47.544;19.074;2023-06-22T13:14:47;14.15;;;10.43;;
63621;SDS011;49770;47.544;19.074;2023-06-22T13:17:50;16.08;;;9.95;;
63621;SDS011;49770;47.544;19.074;2023-06-22T13:20:53;17.62;;;9.98;;
63621;SDS011;49770;47.544;19.074;2023-06-22T13:23:57;11.43;;;9.77;;
63621;SDS011;49770;47.544;19.074;2023-06-22T13:27:00;15.38;;;9.80;;
63621;SDS011;49770;47.544;19.074;2023-06-22T13:30:03;14.05;;;9.45;;
63621;SDS011;49770;47.544;19.074;2023-06-22T13:33:06;20.25;;;9.70;;
63621;SDS011;49770;47.544;19.074;2023-06-22T13:36:08;12.60;;;9.52;;
63621;SDS011;49770;47.544;19.074;2023-06-22T13:39:11;19.77;;;10.27;;
63621;SDS011;49770;47.544;19.074;2023-06-22T13:42:14;12.25;;;10.10;;
63621;SDS011;49770;47.544;19.074;2023-06-22T13:45:16;14.20;;;9.88;;
63621;SDS011;49770;47.544;19.074;2023-06-22T13:48:21;13.40;;;9.27;;
63621;SDS011;49770;47.544;19.074;2023-06-22T13:51:25;15.13;;;9.73;;
63621;SDS011;49770;47.544;19.074;2023-06-22T13:54:28;10.32;;;9.23;;
63621;SDS011;49770;47.544;19.074;2023-06-22T13:57:33;14.68;;;9.27;;
63621;SDS011;49770;47.544;19.074;2023-06-22T14:00:36;14.60;;;9.32;;
63621;SDS011;49770;47.544;19.074;2023-06-22T14:03:40;14.23;;;9.75;;
63621;SDS011;49770;47.544;19.074;2023-06-22T14:06:42;15.07;;;9.48;;
63621;SDS011;49770;47.544;19.074;2023-06-22T14:09:46;12.25;;;9.57;;
63621;SDS011;49770;47.544;19.074;2023-06-22T14:12:49;13.45;;;9.95;;
63621;SDS011;49770;47.544;19.074;2023-06-22T14:15:52;15.73;;;10.48;;
63621;SDS011;49770;47.544;19.074;2023-06-22T14:18:56;13.60;;;9.70;;
63621;SDS011;49770;47.544;19.074;2023-06-22T14:21:59;15.98;;;9.90;;
63621;SDS011;49770;47.544;19.074;2023-06-22T14:25:02;13.52;;;9.32;;
63621;SDS011;49770;47.544;19.074;2023-06-22T14:28:05;12.02;;;9.07;;
63621;SDS011;49770;47.544;19.074;2023-06-22T14:31:08;13.07;;;8.85;;
63621;SDS011;49770;47.544;19.074;2023-06-22T14:34:11;14.80;;;9.40;;
63621;SDS011;49770;47.544;19.074;2023-06-22T14:37:14;17.02;;;9.70;;
63621;SDS011;49770;47.544;19.074;2023-06-22T14:40:16;12.43;;;9.88;;
63621;SDS011;49770;47.544;19.074;2023-06-22T14:43:19;14.07;;;9.60;;
63621;SDS011;49770;47.544;19.074;2023-06-22T14:46:22;14.65;;;10.23;;
63621;SDS011;49770;47.544;19.074;2023-06-22T14:49:25;12.82;;;9.48;;
63621;SDS011;49770;47.544;19.074;2023-06-22T14:52:28;15.90;;;9.85;;
63621;SDS011;49770;47.544;19.074;2023-06-22T14:55:31;12.82;;;9.48;;
63621;SDS011;49770;47.544;19.074;2023-06-22T14:58:34;14.60;;;9.38;;
63621;SDS011;49770;47.544;19.074;2023-06-22T15:01:37;12.15;;;9.18;;
63621;SDS011;49770;47.544;19.074;2023-06-22T15:04:43;13.27;;;9.70;;
63621;SDS011;49770;47.544;19.074;2023-06-22T15:07:46;12.98;;;9.82;;
63621;SDS011;49770;47.544;19.074;2023-06-22T15:10:48;12.68;;;9.23;;
63621;SDS011;49770;47.544;19.074;2023-06-22T15:13:52;15.75;;;9.85;;
63621;SDS011;49770;47.544;19.074;2023-06-22T15:16:54;17.27;;;9.30;;
63621;SDS011;49770;47.544;19.074;2023-06-22T15:19:57;13.52;;;9.45;;
63621;SDS011;49770;47.544;19.074;2023-06-22T15:23:01;11.43;;;9.63;;
